Taurus — WDB5562 — position and weather

sailwx.info

Track history (hours):
 
Tides and Currents Weather Stations Pressure Air Temp Water Temp Dewpoint Dewpoint Depression Visibility Wind Speed Wind Dir Waves Ship Positions

Taurus

Owner: Kirby Offshore Marine, LLC, Staten Island, NY. More information available from US FCC via Universal Licensing System and Coast Guard Vessel Documentation Center.

Last reported at 2017-Feb-17 22:33 UTC. Time now 2017-Feb-21 19:06 UTC.
Position N 39°47' W 075°27'.

Length 24 m.

Type: Ship (hazmat cat B). MMSI: 366910990.

Date/timePositionNaut miles runAvg speedWind from/ knotsBaromVisibWave heightAir tempDewpointWater temp
2017-Feb-17 22:33N 39°47' W 075°27'10 9.7
2017-Feb-17 21:33N 39°39' W 075°33'5 5.0
2017-Feb-17 20:33N 39°34' W 075°31'1 0.6
2017-Feb-17 19:33N 39°34' W 075°31'4 3.7
2017-Feb-17 18:33N 39°37' W 075°35'7 6.5
2017-Feb-17 17:33N 39°42' W 075°31'7 7.3
2017-Feb-17 16:33N 39°48' W 075°25'0 0.2
2017-Feb-17 15:33N 39°49' W 075°25'0 0.1
2017-Feb-17 14:33N 39°49' W 075°25'0 0.1
2017-Feb-17 13:33N 39°49' W 075°25'1 0.8
2017-Feb-17 12:33N 39°49' W 075°24'5 4.8
2017-Feb-17 11:33N 39°46' W 075°29'7 7.4
2017-Feb-17 10:33N 39°39' W 075°33'5 5.4
2017-Feb-17 09:33N 39°34' W 075°33'6 5.6
2017-Feb-17 08:33N 39°28' W 075°33'6 6.4
2017-Feb-17 07:33N 39°23' W 075°29'7 7.0
2017-Feb-17 06:33N 39°18' W 075°23'7 6.9
2017-Feb-17 05:33N 39°12' W 075°17'7 6.6
2017-Feb-17 04:33N 39°07' W 075°12'3 2.8
2017-Feb-17 03:33N 39°05' W 075°11'61 5.6
2017-Feb-16 16:32N 39°39' W 074°05'9 8.8
2017-Feb-16 15:31N 39°48' W 074°01'44 8.5
2017-Feb-16 10:23N 40°31' W 074°00'810.1
2017-Feb-16 09:33N 40°39' W 074°03'1 0.8
2017-Feb-16 08:33N 40°40' W 074°04'0 0.0
2017-Feb-16 07:33N 40°40' W 074°04'0 0.0
2017-Feb-16 06:33N 40°40' W 074°04'0 0.0
2017-Feb-16 05:33N 40°40' W 074°04'0 0.0
2017-Feb-16 04:33N 40°40' W 074°04'0 0.0
2017-Feb-16 03:33N 40°40' W 074°04'0 0.0
2017-Feb-16 02:33N 40°40' W 074°04'0 0.4
2017-Feb-16 01:33N 40°40' W 074°04'4 3.8
2017-Feb-16 00:33N 40°38' W 074°08'3 2.5
2017-Feb-15 23:33N 40°38' W 074°12'0 0.0
2017-Feb-15 21:33N 40°38' W 074°12'0 0.0
2017-Feb-15 20:33N 40°38' W 074°12'0 0.0
2017-Feb-15 19:33N 40°38' W 074°12'0 0.0
2017-Feb-15 18:33N 40°38' W 074°12'0 0.1
2017-Feb-15 17:33N 40°38' W 074°12'1 1.4
2017-Feb-15 16:33N 40°38' W 074°10'0 0.0
2017-Feb-15 15:33N 40°38' W 074°10'0 0.0
2017-Feb-15 14:33N 40°38' W 074°10'0 0.0
2017-Feb-14 22:29N 40°38' W 074°10'0 0.0
2017-Feb-14 21:33N 40°38' W 074°10'0 0.0
2017-Feb-14 20:33N 40°38' W 074°10'0 0.0
2017-Feb-14 19:33N 40°38' W 074°10'  
Track history (hours):
 
Tides and Currents Weather Stations Pressure Air Temp Water Temp Dewpoint Dewpoint Depression Visibility Wind Speed Wind Dir Waves Ship Positions

Taurus

Owner: Kirby Offshore Marine, LLC, Staten Island, NY. More information available from US FCC via Universal Licensing System and Coast Guard Vessel Documentation Center.

Last reported at 2017-Feb-17 22:33 UTC. Time now 2017-Feb-21 19:06 UTC.
Position N 39°47' W 075°27'.

Length 24 m.

Type: Ship (hazmat cat B). MMSI: 366910990.

Date/timePositionNaut miles runAvg speedWind from/ knotsBaromVisibWave heightAir tempDewpointWater temp
2017-Feb-17 22:33N 39°47' W 075°27'10 9.7
2017-Feb-17 21:33N 39°39' W 075°33'5 5.0
2017-Feb-17 20:33N 39°34' W 075°31'1 0.6
2017-Feb-17 19:33N 39°34' W 075°31'4 3.7
2017-Feb-17 18:33N 39°37' W 075°35'7 6.5
2017-Feb-17 17:33N 39°42' W 075°31'7 7.3
2017-Feb-17 16:33N 39°48' W 075°25'0 0.2
2017-Feb-17 15:33N 39°49' W 075°25'0 0.1
2017-Feb-17 14:33N 39°49' W 075°25'0 0.1
2017-Feb-17 13:33N 39°49' W 075°25'1 0.8
2017-Feb-17 12:33N 39°49' W 075°24'5 4.8
2017-Feb-17 11:33N 39°46' W 075°29'7 7.4
2017-Feb-17 10:33N 39°39' W 075°33'5 5.4
2017-Feb-17 09:33N 39°34' W 075°33'6 5.6
2017-Feb-17 08:33N 39°28' W 075°33'6 6.4
2017-Feb-17 07:33N 39°23' W 075°29'7 7.0
2017-Feb-17 06:33N 39°18' W 075°23'7 6.9
2017-Feb-17 05:33N 39°12' W 075°17'7 6.6
2017-Feb-17 04:33N 39°07' W 075°12'3 2.8
2017-Feb-17 03:33N 39°05' W 075°11'61 5.6
2017-Feb-16 16:32N 39°39' W 074°05'9 8.8
2017-Feb-16 15:31N 39°48' W 074°01'44 8.5
2017-Feb-16 10:23N 40°31' W 074°00'810.1
2017-Feb-16 09:33N 40°39' W 074°03'1 0.8
2017-Feb-16 08:33N 40°40' W 074°04'0 0.0
2017-Feb-16 07:33N 40°40' W 074°04'0 0.0
2017-Feb-16 06:33N 40°40' W 074°04'0 0.0
2017-Feb-16 05:33N 40°40' W 074°04'0 0.0
2017-Feb-16 04:33N 40°40' W 074°04'0 0.0
2017-Feb-16 03:33N 40°40' W 074°04'0 0.0
2017-Feb-16 02:33N 40°40' W 074°04'0 0.4
2017-Feb-16 01:33N 40°40' W 074°04'4 3.8
2017-Feb-16 00:33N 40°38' W 074°08'3 2.5
2017-Feb-15 23:33N 40°38' W 074°12'0 0.0
2017-Feb-15 21:33N 40°38' W 074°12'0 0.0
2017-Feb-15 20:33N 40°38' W 074°12'0 0.0
2017-Feb-15 19:33N 40°38' W 074°12'0 0.0
2017-Feb-15 18:33N 40°38' W 074°12'0 0.1
2017-Feb-15 17:33N 40°38' W 074°12'1 1.4
2017-Feb-15 16:33N 40°38' W 074°10'0 0.0
2017-Feb-15 15:33N 40°38' W 074°10'0 0.0
2017-Feb-15 14:33N 40°38' W 074°10'0 0.0
2017-Feb-14 22:29N 40°38' W 074°10'0 0.0
2017-Feb-14 21:33N 40°38' W 074°10'0 0.0
2017-Feb-14 20:33N 40°38' W 074°10'0 0.0
2017-Feb-14 19:33N 40°38' W 074°10'  

Dump ship's entire track history